»·PEaware :: N54JA L52-L88

N54JA :: L52-L88

FLIGHT INFORMATION

Flight Status: Arrived
Operator: Privately registered:
United States
More flights under this callsign
Pilot: Kevin S. (26378)
Aircraft: CESSNA 172 SKYHAWK
(C172)
More flights by this aircraft type
Origin: L52 Oceano Co
United States
Destination: L88 New Cuyama
United States
More flights between these airports :: More routes between these airports
Route: L52 WYNNR L88
File this flight plan on PilotEdge
Remarks:
Altitude:
(Current/Filed)
7,500ft
Speed:
(Current/Filed)
100kts
Departed: 25-Sep-19 07:22 PM
Arrived: 25-Sep-19 08:14 PM
Distance/Time
Traveled:
47nm/0:52
Distance/Time
To Go:
Arrived

Flight Plot

Page will automatically refresh every two minutes.


Map Options




Map Legend


Flown Route
Filed Route
Departure Airport
Arrival Airport
Navaid (VOR, NDB)
Fix

Horizontal Profiles

Position Reports

Time Latitude Longitude Heading Altitude Ground
Speed
25-Sep-19 18:47 35.103382 -120.624688 212 18ft 0kts
25-Sep-19 18:48 35.103382 -120.624688 212 18ft 0kts
25-Sep-19 18:50 35.103382 -120.624688 212 18ft 0kts
25-Sep-19 18:50 35.103381 -120.624688 212 18ft 0kts
25-Sep-19 18:51 35.103381 -120.624688 212 18ft 0kts
25-Sep-19 18:53 35.103381 -120.624688 212 18ft 0kts
25-Sep-19 18:53 35.103381 -120.624688 212 18ft 0kts
25-Sep-19 18:54 35.103381 -120.624688 212 18ft 0kts
25-Sep-19 18:55 35.103381 -120.624688 212 18ft 0kts
25-Sep-19 18:56 35.103381 -120.624688 212 18ft 0kts
25-Sep-19 18:57 35.103381 -120.624688 212 18ft 0kts
25-Sep-19 18:58 35.103381 -120.624688 212 18ft 0kts
25-Sep-19 18:59 35.103381 -120.624688 212 18ft 0kts
25-Sep-19 19:00 35.103381 -120.624688 212 18ft 0kts
25-Sep-19 19:01 35.103381 -120.624688 212 18ft 0kts
25-Sep-19 19:02 35.103381 -120.624688 212 18ft 0kts
25-Sep-19 19:03 35.103381 -120.624688 212 18ft 0kts
25-Sep-19 19:04 35.103381 -120.624688 212 18ft 0kts
25-Sep-19 19:05 35.103381 -120.624688 212 18ft 0kts
25-Sep-19 19:06 35.103381 -120.624688 212 18ft 0kts
25-Sep-19 19:07 35.103381 -120.624688 212 18ft 0kts
25-Sep-19 19:08 35.103121 -120.624394 124 18ft 8kts
25-Sep-19 19:09 35.101669 -120.622377 206 18ft 2kts
25-Sep-19 19:10 35.101954 -120.622279 163 18ft 2kts
25-Sep-19 19:11 35.100494 -120.621327 123 18ft 4kts
25-Sep-19 19:12 35.099506 -120.619680 150 18ft 0kts
25-Sep-19 19:13 35.099506 -120.619680 150 18ft 0kts
25-Sep-19 19:14 35.099506 -120.619680 150 18ft 0kts
25-Sep-19 19:15 35.099506 -120.619680 150 18ft 0kts
25-Sep-19 19:16 35.099506 -120.619680 150 18ft 0kts
25-Sep-19 19:17 35.099495 -120.619530 51 18ft 0kts
25-Sep-19 19:18 35.099495 -120.619530 51 18ft 0kts
25-Sep-19 19:19 35.099495 -120.619530 51 18ft 0kts
25-Sep-19 19:20 35.099985 -120.619506 309 18ft 4kts
25-Sep-19 19:21 35.108054 -120.635519 300 571ft 82kts
25-Sep-19 19:22 35.124749 -120.644838 25 1644ft 77kts
25-Sep-19 19:23 35.140487 -120.628376 85 2601ft 81kts
25-Sep-19 19:24 35.140132 -120.600391 89 3513ft 82kts
25-Sep-19 19:25 35.139400 -120.572318 93 4446ft 83kts
25-Sep-19 19:26 35.133766 -120.544587 98 5340ft 85kts
25-Sep-19 19:27 35.130514 -120.516229 100 6179ft 85kts
25-Sep-19 19:28 35.124483 -120.488953 133 6972ft 84kts
25-Sep-19 19:29 35.102178 -120.476065 167 7333ft 92kts
25-Sep-19 19:30 35.076552 -120.477839 185 7403ft 93kts
25-Sep-19 19:31 35.051936 -120.487889 209 7458ft 95kts
25-Sep-19 19:32 35.031886 -120.508997 216 7356ft 98kts
25-Sep-19 19:33 35.013544 -120.532582 226 7019ft 95kts
25-Sep-19 19:34 34.992056 -120.550563 211 6687ft 94kts
25-Sep-19 19:35 34.982102 -120.535250 75 7089ft 83kts
25-Sep-19 19:36 34.983449 -120.506588 95 7549ft 84kts
25-Sep-19 19:37 34.982990 -120.479517 44 7414ft 85kts
25-Sep-19 19:38 34.999425 -120.460069 54 7519ft 80kts
25-Sep-19 19:39 35.009416 -120.435274 63 7593ft 84kts
25-Sep-19 19:40 35.016791 -120.408547 84 7535ft 84kts
25-Sep-19 19:41 35.022236 -120.381137 53 7545ft 86kts
25-Sep-19 19:42 35.035126 -120.357822 90 7571ft 88kts
25-Sep-19 19:43 35.028987 -120.329596 116 7626ft 88kts
25-Sep-19 19:44 35.014675 -120.305095 121 7672ft 88kts
25-Sep-19 19:45 34.998593 -120.282253 142 7704ft 91kts
25-Sep-19 19:46 34.983280 -120.258987 114 7746ft 87kts
25-Sep-19 19:47 34.973582 -120.231920 104 7697ft 85kts
25-Sep-19 19:48 34.967007 -120.203477 103 7587ft 87kts
25-Sep-19 19:49 34.956279 -120.176897 121 7636ft 89kts
25-Sep-19 19:50 34.940346 -120.154311 95 7673ft 87kts
25-Sep-19 19:51 34.937886 -120.125358 92 7743ft 85kts
25-Sep-19 19:52 34.931936 -120.096995 110 7655ft 87kts
25-Sep-19 19:53 34.927165 -120.070926 90 7575ft 85kts
25-Sep-19 19:54 34.924011 -120.042590 91 7491ft 86kts
25-Sep-19 19:55 34.923274 -120.013368 85 7435ft 86kts
25-Sep-19 19:56 34.924403 -119.984731 83 7480ft 84kts
25-Sep-19 19:57 34.925735 -119.956063 80 7508ft 84kts
25-Sep-19 19:58 34.928245 -119.927581 80 7532ft 84kts
25-Sep-19 19:59 34.928539 -119.898785 88 7553ft 85kts
25-Sep-19 20:00 34.926797 -119.869957 92 7506ft 84kts
25-Sep-19 20:01 34.922147 -119.841466 100 7023ft 88kts
25-Sep-19 20:02 34.914727 -119.813356 107 6559ft 87kts
25-Sep-19 20:03 34.904210 -119.786558 113 6121ft 86kts
25-Sep-19 20:04 34.893154 -119.760262 103 5532ft 85kts
25-Sep-19 20:05 34.895760 -119.732340 75 4939ft 84kts
25-Sep-19 20:06 34.900626 -119.705715 17 4299ft 84kts
25-Sep-19 20:07 34.898484 -119.712623 160 3638ft 80kts
25-Sep-19 20:08 34.905726 -119.707559 15 3212ft 68kts
25-Sep-19 20:09 34.915666 -119.687981 334 3268ft 78kts
25-Sep-19 20:10 34.927988 -119.705805 289 3329ft 80kts
25-Sep-19 20:11 34.934213 -119.689870 122 2756ft 78kts
25-Sep-19 20:12 34.930224 -119.673030 2 2622ft 62kts
25-Sep-19 20:13 34.938813 -119.682805 296 2189ft 17kts
25-Sep-19 20:14 34.942840 -119.691129 10 2155ft 7kts
25-Sep-19 20:15 34.943060 -119.690947 73 2155ft 0kts
25-Sep-19 20:16 34.943060 -119.690947 73 2155ft 0kts
25-Sep-19 20:17 34.943060 -119.690947 73 2155ft 0kts
25-Sep-19 20:18 34.943060 -119.690947 73 2155ft 0kts
25-Sep-19 20:19 34.943060 -119.690947 73 2155ft 0kts
25-Sep-19 20:20 34.943060 -119.690947 73 2155ft 0kts
25-Sep-19 20:21 34.943060 -119.690947 73 2155ft 0kts
25-Sep-19 20:22 34.943060 -119.690947 73 2155ft 0kts
25-Sep-19 20:23 34.943060 -119.690947 73 2155ft 0kts
25-Sep-19 20:24 34.943060 -119.690947 73 2155ft 0kts
25-Sep-19 20:25 34.943060 -119.690947 73 2155ft 0kts
25-Sep-19 20:26 34.943060 -119.690947 73 2155ft 0kts
25-Sep-19 20:27 34.943060 -119.690947 73 2155ft 0kts

Navigation Log

Ident Type
Flight plan parsing failed, navigation log unavailable